sensor_id;sensor_type;location;lat;lon;timestamp;pressure;altitude;pressure_sealevel;temperature
15062;BMP180;7630;50.306;8.566;2023-08-20T00:03:10;98348.00;;;24.70
15062;BMP180;7630;50.306;8.566;2023-08-20T00:07:12;98336.00;;;24.80
15062;BMP180;7630;50.306;8.566;2023-08-20T00:11:14;98349.00;;;24.30
15062;BMP180;7630;50.306;8.566;2023-08-20T00:15:15;98346.00;;;24.60
15062;BMP180;7630;50.306;8.566;2023-08-20T00:19:25;98340.00;;;24.90
15062;BMP180;7630;50.306;8.566;2023-08-20T00:23:27;98345.00;;;24.00
15062;BMP180;7630;50.306;8.566;2023-08-20T00:27:28;98335.00;;;24.20
15062;BMP180;7630;50.306;8.566;2023-08-20T00:31:30;98343.00;;;24.60
15062;BMP180;7630;50.306;8.566;2023-08-20T00:35:31;98335.00;;;24.70
15062;BMP180;7630;50.306;8.566;2023-08-20T00:39:33;98340.00;;;24.90
15062;BMP180;7630;50.306;8.566;2023-08-20T00:43:34;98344.00;;;24.60
15062;BMP180;7630;50.306;8.566;2023-08-20T00:47:35;98346.00;;;24.60
15062;BMP180;7630;50.306;8.566;2023-08-20T00:51:37;98345.00;;;24.50
15062;BMP180;7630;50.306;8.566;2023-08-20T00:55:39;98340.00;;;24.40
15062;BMP180;7630;50.306;8.566;2023-08-20T00:59:40;98333.00;;;24.20
15062;BMP180;7630;50.306;8.566;2023-08-20T01:03:42;98334.00;;;24.30
15062;BMP180;7630;50.306;8.566;2023-08-20T01:07:57;98339.00;;;23.90
15062;BMP180;7630;50.306;8.566;2023-08-20T01:11:55;98337.00;;;24.10
15062;BMP180;7630;50.306;8.566;2023-08-20T01:15:56;98342.00;;;23.90
15062;BMP180;7630;50.306;8.566;2023-08-20T01:19:58;98350.00;;;24.10
15062;BMP180;7630;50.306;8.566;2023-08-20T01:28:31;98342.00;;;23.60
15062;BMP180;7630;50.306;8.566;2023-08-20T01:32:33;98351.00;;;23.90
15062;BMP180;7630;50.306;8.566;2023-08-20T01:36:34;98344.00;;;23.90
15062;BMP180;7630;50.306;8.566;2023-08-20T01:40:35;98349.00;;;23.50
15062;BMP180;7630;50.306;8.566;2023-08-20T01:44:36;98349.00;;;23.50
15062;BMP180;7630;50.306;8.566;2023-08-20T01:48:38;98352.00;;;23.40
15062;BMP180;7630;50.306;8.566;2023-08-20T01:52:39;98358.00;;;23.80
15062;BMP180;7630;50.306;8.566;2023-08-20T01:56:40;98357.00;;;23.70
15062;BMP180;7630;50.306;8.566;2023-08-20T02:00:41;98359.00;;;23.80
15062;BMP180;7630;50.306;8.566;2023-08-20T02:04:42;98360.00;;;23.40
15062;BMP180;7630;50.306;8.566;2023-08-20T02:08:43;98351.00;;;23.60
15062;BMP180;7630;50.306;8.566;2023-08-20T02:12:44;98354.00;;;23.60
15062;BMP180;7630;50.306;8.566;2023-08-20T02:16:47;98361.00;;;23.60
15062;BMP180;7630;50.306;8.566;2023-08-20T02:20:49;98353.00;;;23.40
15062;BMP180;7630;50.306;8.566;2023-08-20T02:24:50;98370.00;;;23.40
15062;BMP180;7630;50.306;8.566;2023-08-20T02:28:51;98357.00;;;23.40
15062;BMP180;7630;50.306;8.566;2023-08-20T02:32:52;98359.00;;;22.80
15062;BMP180;7630;50.306;8.566;2023-08-20T02:36:53;98350.00;;;22.70
15062;BMP180;7630;50.306;8.566;2023-08-20T02:40:54;98351.00;;;22.80
15062;BMP180;7630;50.306;8.566;2023-08-20T02:44:55;98349.00;;;22.60
15062;BMP180;7630;50.306;8.566;2023-08-20T02:48:56;98330.00;;;22.80
15062;BMP180;7630;50.306;8.566;2023-08-20T02:52:57;98336.00;;;22.90
15062;BMP180;7630;50.306;8.566;2023-08-20T02:56:59;98340.00;;;22.90
15062;BMP180;7630;50.306;8.566;2023-08-20T03:01:00;98341.00;;;22.80
15062;BMP180;7630;50.306;8.566;2023-08-20T03:05:01;98338.00;;;22.70
15062;BMP180;7630;50.306;8.566;2023-08-20T03:09:02;98330.00;;;22.70
15062;BMP180;7630;50.306;8.566;2023-08-20T03:13:05;98317.00;;;22.40
15062;BMP180;7630;50.306;8.566;2023-08-20T03:17:06;98326.00;;;22.80
15062;BMP180;7630;50.306;8.566;2023-08-20T03:21:07;98319.00;;;22.30
15062;BMP180;7630;50.306;8.566;2023-08-20T03:25:08;98320.00;;;22.50
15062;BMP180;7630;50.306;8.566;2023-08-20T03:29:09;98325.00;;;22.60
15062;BMP180;7630;50.306;8.566;2023-08-20T03:33:10;98331.00;;;22.50
15062;BMP180;7630;50.306;8.566;2023-08-20T03:37:12;98332.00;;;22.60
15062;BMP180;7630;50.306;8.566;2023-08-20T03:41:14;98335.00;;;22.50
15062;BMP180;7630;50.306;8.566;2023-08-20T03:45:15;98328.00;;;22.30
15062;BMP180;7630;50.306;8.566;2023-08-20T03:49:16;98347.00;;;22.10
15062;BMP180;7630;50.306;8.566;2023-08-20T03:53:17;98353.00;;;22.20
15062;BMP180;7630;50.306;8.566;2023-08-20T03:57:18;98349.00;;;22.30
15062;BMP180;7630;50.306;8.566;2023-08-20T04:01:20;98346.00;;;21.30
15062;BMP180;7630;50.306;8.566;2023-08-20T04:05:21;98361.00;;;21.50
15062;BMP180;7630;50.306;8.566;2023-08-20T04:09:22;98368.00;;;22.10
15062;BMP180;7630;50.306;8.566;2023-08-20T04:13:23;98366.00;;;22.40
15062;BMP180;7630;50.306;8.566;2023-08-20T04:17:24;98372.00;;;22.60
15062;BMP180;7630;50.306;8.566;2023-08-20T04:21:26;98290.00;;;22.60
15062;BMP180;7630;50.306;8.566;2023-08-20T04:25:27;98373.00;;;22.80
15062;BMP180;7630;50.306;8.566;2023-08-20T04:29:28;98367.00;;;22.70
15062;BMP180;7630;50.306;8.566;2023-08-20T04:33:29;98361.00;;;22.70
15062;BMP180;7630;50.306;8.566;2023-08-20T04:37:31;98369.00;;;22.60
15062;BMP180;7630;50.306;8.566;2023-08-20T04:41:32;98368.00;;;22.70
15062;BMP180;7630;50.306;8.566;2023-08-20T04:45:33;98383.00;;;22.90
15062;BMP180;7630;50.306;8.566;2023-08-20T04:49:34;98368.00;;;23.10
15062;BMP180;7630;50.306;8.566;2023-08-20T04:53:35;98380.00;;;23.10
15062;BMP180;7630;50.306;8.566;2023-08-20T04:57:36;98377.00;;;23.30
15062;BMP180;7630;50.306;8.566;2023-08-20T05:01:38;98375.00;;;23.40
15062;BMP180;7630;50.306;8.566;2023-08-20T05:05:40;98389.00;;;23.60
15062;BMP180;7630;50.306;8.566;2023-08-20T05:09:41;98394.00;;;23.70
15062;BMP180;7630;50.306;8.566;2023-08-20T05:13:44;98392.00;;;23.80
15062;BMP180;7630;50.306;8.566;2023-08-20T05:17:46;98396.00;;;24.00
15062;BMP180;7630;50.306;8.566;2023-08-20T05:21:47;98394.00;;;24.00
15062;BMP180;7630;50.306;8.566;2023-08-20T05:25:48;98392.00;;;24.30
15062;BMP180;7630;50.306;8.566;2023-08-20T05:29:50;98404.00;;;24.30
15062;BMP180;7630;50.306;8.566;2023-08-20T05:33:51;98413.00;;;24.80
15062;BMP180;7630;50.306;8.566;2023-08-20T05:37:52;98414.00;;;25.00
15062;BMP180;7630;50.306;8.566;2023-08-20T05:41:55;98429.00;;;25.20
15062;BMP180;7630;50.306;8.566;2023-08-20T05:45:56;98420.00;;;25.70
15062;BMP180;7630;50.306;8.566;2023-08-20T05:49:57;98421.00;;;26.20
15062;BMP180;7630;50.306;8.566;2023-08-20T05:53:58;98421.00;;;26.40
15062;BMP180;7630;50.306;8.566;2023-08-20T05:57:59;98427.00;;;26.80
15062;BMP180;7630;50.306;8.566;2023-08-20T06:02:01;98430.00;;;26.60
15062;BMP180;7630;50.306;8.566;2023-08-20T06:06:03;98440.00;;;27.20
15062;BMP180;7630;50.306;8.566;2023-08-20T06:10:07;98430.00;;;27.70
15062;BMP180;7630;50.306;8.566;2023-08-20T06:14:08;98432.00;;;27.40
15062;BMP180;7630;50.306;8.566;2023-08-20T06:18:09;98439.00;;;26.80
15062;BMP180;7630;50.306;8.566;2023-08-20T06:22:10;98453.00;;;27.00
15062;BMP180;7630;50.306;8.566;2023-08-20T06:26:12;98452.00;;;27.30
15062;BMP180;7630;50.306;8.566;2023-08-20T06:30:13;98452.00;;;24.60
15062;BMP180;7630;50.306;8.566;2023-08-20T06:34:14;98469.00;;;25.40
15062;BMP180;7630;50.306;8.566;2023-08-20T06:38:16;98477.00;;;27.00
15062;BMP180;7630;50.306;8.566;2023-08-20T06:42:17;98474.00;;;25.30
15062;BMP180;7630;50.306;8.566;2023-08-20T06:46:18;98464.00;;;23.40
15062;BMP180;7630;50.306;8.566;2023-08-20T06:50:19;98474.00;;;24.50
15062;BMP180;7630;50.306;8.566;2023-08-20T06:54:22;98470.00;;;25.80
15062;BMP180;7630;50.306;8.566;2023-08-20T06:58:23;98469.00;;;26.10
15062;BMP180;7630;50.306;8.566;2023-08-20T07:02:24;98471.00;;;25.00
15062;BMP180;7630;50.306;8.566;2023-08-20T07:06:25;98471.00;;;26.20
15062;BMP180;7630;50.306;8.566;2023-08-20T07:10:26;98473.00;;;25.80
15062;BMP180;7630;50.306;8.566;2023-08-20T07:14:28;98473.00;;;25.60
15062;BMP180;7630;50.306;8.566;2023-08-20T07:18:29;98469.00;;;24.70
15062;BMP180;7630;50.306;8.566;2023-08-20T07:22:30;98473.00;;;24.60
15062;BMP180;7630;50.306;8.566;2023-08-20T07:26:31;98484.00;;;24.70
15062;BMP180;7630;50.306;8.566;2023-08-20T07:30:33;98479.00;;;25.00
15062;BMP180;7630;50.306;8.566;2023-08-20T07:34:34;98482.00;;;24.50
15062;BMP180;7630;50.306;8.566;2023-08-20T07:38:35;98485.00;;;25.70
15062;BMP180;7630;50.306;8.566;2023-08-20T07:42:40;98481.00;;;25.00
15062;BMP180;7630;50.306;8.566;2023-08-20T07:46:41;98486.00;;;24.50
15062;BMP180;7630;50.306;8.566;2023-08-20T07:50:42;98485.00;;;25.20
15062;BMP180;7630;50.306;8.566;2023-08-20T07:54:43;98482.00;;;25.20
15062;BMP180;7630;50.306;8.566;2023-08-20T07:58:45;98480.00;;;26.40
15062;BMP180;7630;50.306;8.566;2023-08-20T08:02:46;98485.00;;;25.10
15062;BMP180;7630;50.306;8.566;2023-08-20T08:06:47;98480.00;;;24.80
15062;BMP180;7630;50.306;8.566;2023-08-20T08:10:49;98484.00;;;26.00
15062;BMP180;7630;50.306;8.566;2023-08-20T08:14:50;98496.00;;;25.50
15062;BMP180;7630;50.306;8.566;2023-08-20T08:18:51;98489.00;;;25.10
15062;BMP180;7630;50.306;8.566;2023-08-20T08:22:52;98489.00;;;24.30
15062;BMP180;7630;50.306;8.566;2023-08-20T08:26:54;98493.00;;;24.50
15062;BMP180;7630;50.306;8.566;2023-08-20T08:30:55;98487.00;;;25.80
15062;BMP180;7630;50.306;8.566;2023-08-20T08:34:56;98504.00;;;24.80
15062;BMP180;7630;50.306;8.566;2023-08-20T08:38:58;98487.00;;;26.00
15062;BMP180;7630;50.306;8.566;2023-08-20T08:43:00;98487.00;;;26.20
15062;BMP180;7630;50.306;8.566;2023-08-20T08:47:01;98478.00;;;27.40
15062;BMP180;7630;50.306;8.566;2023-08-20T08:51:04;98477.00;;;26.60
15062;BMP180;7630;50.306;8.566;2023-08-20T08:55:05;98482.00;;;29.00
15062;BMP180;7630;50.306;8.566;2023-08-20T08:59:09;98486.00;;;27.80
15062;BMP180;7630;50.306;8.566;2023-08-20T09:03:10;98487.00;;;28.50
15062;BMP180;7630;50.306;8.566;2023-08-20T09:07:13;98497.00;;;28.30
15062;BMP180;7630;50.306;8.566;2023-08-20T09:11:15;98489.00;;;27.00
15062;BMP180;7630;50.306;8.566;2023-08-20T09:15:16;98486.00;;;27.70
15062;BMP180;7630;50.306;8.566;2023-08-20T09:19:17;98492.00;;;27.60
15062;BMP180;7630;50.306;8.566;2023-08-20T09:23:18;98498.00;;;28.60
15062;BMP180;7630;50.306;8.566;2023-08-20T09:27:19;98491.00;;;28.00
15062;BMP180;7630;50.306;8.566;2023-08-20T09:31:36;98493.00;;;29.40
15062;BMP180;7630;50.306;8.566;2023-08-20T09:35:26;98492.00;;;29.60
15062;BMP180;7630;50.306;8.566;2023-08-20T09:39:27;98493.00;;;28.80
15062;BMP180;7630;50.306;8.566;2023-08-20T09:43:30;98481.00;;;29.60
15062;BMP180;7630;50.306;8.566;2023-08-20T09:47:34;98491.00;;;29.70
15062;BMP180;7630;50.306;8.566;2023-08-20T09:51:37;98495.00;;;30.60
15062;BMP180;7630;50.306;8.566;2023-08-20T09:55:41;98489.00;;;27.90
15062;BMP180;7630;50.306;8.566;2023-08-20T09:59:43;98488.00;;;29.10
15062;BMP180;7630;50.306;8.566;2023-08-20T10:03:46;98495.00;;;28.70
15062;BMP180;7630;50.306;8.566;2023-08-20T10:07:47;98488.00;;;29.00
15062;BMP180;7630;50.306;8.566;2023-08-20T10:11:50;98497.00;;;29.70
15062;BMP180;7630;50.306;8.566;2023-08-20T10:15:51;98483.00;;;29.10
15062;BMP180;7630;50.306;8.566;2023-08-20T10:19:53;98485.00;;;30.00
15062;BMP180;7630;50.306;8.566;2023-08-20T10:23:54;98493.00;;;29.00
15062;BMP180;7630;50.306;8.566;2023-08-20T10:28:13;98487.00;;;30.20
15062;BMP180;7630;50.306;8.566;2023-08-20T10:32:17;98500.00;;;30.00
15062;BMP180;7630;50.306;8.566;2023-08-20T10:36:20;98484.00;;;31.20
15062;BMP180;7630;50.306;8.566;2023-08-20T10:40:53;98482.00;;;29.80
15062;BMP180;7630;50.306;8.566;2023-08-20T10:45:06;98482.00;;;30.30
15062;BMP180;7630;50.306;8.566;2023-08-20T10:49:15;98487.00;;;31.50
15062;BMP180;7630;50.306;8.566;2023-08-20T10:53:15;98478.00;;;32.20
15062;BMP180;7630;50.306;8.566;2023-08-20T10:57:16;98481.00;;;33.10
15062;BMP180;7630;50.306;8.566;2023-08-20T11:01:22;98483.00;;;33.80
15062;BMP180;7630;50.306;8.566;2023-08-20T11:05:23;98484.00;;;32.00
15062;BMP180;7630;50.306;8.566;2023-08-20T11:09:31;98489.00;;;33.00
15062;BMP180;7630;50.306;8.566;2023-08-20T11:13:32;98486.00;;;33.40
15062;BMP180;7630;50.306;8.566;2023-08-20T11:17:34;98487.00;;;31.50
15062;BMP180;7630;50.306;8.566;2023-08-20T11:21:38;98417.00;;;32.50
15062;BMP180;7630;50.306;8.566;2023-08-20T11:25:43;98488.00;;;32.90
15062;BMP180;7630;50.306;8.566;2023-08-20T11:29:44;98477.00;;;33.40
15062;BMP180;7630;50.306;8.566;2023-08-20T11:33:45;98489.00;;;31.40
15062;BMP180;7630;50.306;8.566;2023-08-20T11:37:48;98486.00;;;32.10
15062;BMP180;7630;50.306;8.566;2023-08-20T11:41:50;98481.00;;;32.60
15062;BMP180;7630;50.306;8.566;2023-08-20T11:45:51;98481.00;;;31.00
15062;BMP180;7630;50.306;8.566;2023-08-20T11:50:03;98461.00;;;32.60
15062;BMP180;7630;50.306;8.566;2023-08-20T11:54:07;98481.00;;;31.10
15062;BMP180;7630;50.306;8.566;2023-08-20T11:58:12;98481.00;;;31.60
15062;BMP180;7630;50.306;8.566;2023-08-20T12:02:13;98482.00;;;30.80
15062;BMP180;7630;50.306;8.566;2023-08-20T12:06:21;98471.00;;;30.30
15062;BMP180;7630;50.306;8.566;2023-08-20T12:10:24;98477.00;;;31.90
15062;BMP180;7630;50.306;8.566;2023-08-20T12:14:25;98474.00;;;32.20
15062;BMP180;7630;50.306;8.566;2023-08-20T12:18:26;98473.00;;;33.50
15062;BMP180;7630;50.306;8.566;2023-08-20T12:22:27;98472.00;;;32.00
15062;BMP180;7630;50.306;8.566;2023-08-20T12:26:29;98468.00;;;31.70
15062;BMP180;7630;50.306;8.566;2023-08-20T12:30:31;98467.00;;;33.40
15062;BMP180;7630;50.306;8.566;2023-08-20T12:34:32;98456.00;;;36.50
15062;BMP180;7630;50.306;8.566;2023-08-20T12:38:34;98465.00;;;39.20
15062;BMP180;7630;50.306;8.566;2023-08-20T12:42:35;98467.00;;;37.70
15062;BMP180;7630;50.306;8.566;2023-08-20T12:46:36;98466.00;;;33.70
15062;BMP180;7630;50.306;8.566;2023-08-20T12:50:37;98456.00;;;34.80
15062;BMP180;7630;50.306;8.566;2023-08-20T12:54:38;98457.00;;;36.70
15062;BMP180;7630;50.306;8.566;2023-08-20T12:58:40;98459.00;;;39.60
15062;BMP180;7630;50.306;8.566;2023-08-20T13:02:41;98450.00;;;41.70
15062;BMP180;7630;50.306;8.566;2023-08-20T13:06:44;98450.00;;;42.80
15062;BMP180;7630;50.306;8.566;2023-08-20T13:10:54;98443.00;;;41.80
15062;BMP180;7630;50.306;8.566;2023-08-20T13:14:57;98455.00;;;40.80
15062;BMP180;7630;50.306;8.566;2023-08-20T13:18:59;98452.00;;;35.60
15062;BMP180;7630;50.306;8.566;2023-08-20T13:23:00;98450.00;;;34.00
15062;BMP180;7630;50.306;8.566;2023-08-20T13:27:01;98451.00;;;32.50
15062;BMP180;7630;50.306;8.566;2023-08-20T13:31:02;98452.00;;;33.30
15062;BMP180;7630;50.306;8.566;2023-08-20T13:35:04;98454.00;;;33.90
15062;BMP180;7630;50.306;8.566;2023-08-20T13:39:06;98450.00;;;35.10
15062;BMP180;7630;50.306;8.566;2023-08-20T13:43:07;98452.00;;;36.60
15062;BMP180;7630;50.306;8.566;2023-08-20T13:47:10;98451.00;;;37.50
15062;BMP180;7630;50.306;8.566;2023-08-20T13:51:11;98451.00;;;39.30
15062;BMP180;7630;50.306;8.566;2023-08-20T13:55:12;98446.00;;;37.20
15062;BMP180;7630;50.306;8.566;2023-08-20T13:59:14;98445.00;;;36.60
15062;BMP180;7630;50.306;8.566;2023-08-20T14:03:15;98447.00;;;36.50
15062;BMP180;7630;50.306;8.566;2023-08-20T14:07:18;98446.00;;;33.00
15062;BMP180;7630;50.306;8.566;2023-08-20T14:11:19;98437.00;;;33.50
15062;BMP180;7630;50.306;8.566;2023-08-20T14:15:20;98439.00;;;32.60
15062;BMP180;7630;50.306;8.566;2023-08-20T14:19:21;98439.00;;;34.00
15062;BMP180;7630;50.306;8.566;2023-08-20T14:23:23;98435.00;;;33.70
15062;BMP180;7630;50.306;8.566;2023-08-20T14:27:24;98439.00;;;34.00
15062;BMP180;7630;50.306;8.566;2023-08-20T14:31:25;98436.00;;;37.00
15062;BMP180;7630;50.306;8.566;2023-08-20T14:35:27;98426.00;;;36.70
15062;BMP180;7630;50.306;8.566;2023-08-20T14:39:28;98421.00;;;34.50
15062;BMP180;7630;50.306;8.566;2023-08-20T14:43:32;98419.00;;;34.10
15062;BMP180;7630;50.306;8.566;2023-08-20T14:47:33;98421.00;;;35.40
15062;BMP180;7630;50.306;8.566;2023-08-20T14:51:34;98421.00;;;32.90
15062;BMP180;7630;50.306;8.566;2023-08-20T14:55:37;98421.00;;;36.10
15062;BMP180;7630;50.306;8.566;2023-08-20T14:59:38;98354.00;;;38.00
15062;BMP180;7630;50.306;8.566;2023-08-20T15:03:39;98412.00;;;39.20
15062;BMP180;7630;50.306;8.566;2023-08-20T15:07:40;98409.00;;;38.80
15062;BMP180;7630;50.306;8.566;2023-08-20T15:11:42;98412.00;;;39.10
15062;BMP180;7630;50.306;8.566;2023-08-20T15:15:43;98408.00;;;39.00
15062;BMP180;7630;50.306;8.566;2023-08-20T15:19:44;98410.00;;;37.20
15062;BMP180;7630;50.306;8.566;2023-08-20T15:23:45;98410.00;;;36.80
15062;BMP180;7630;50.306;8.566;2023-08-20T15:27:47;98409.00;;;35.50
15062;BMP180;7630;50.306;8.566;2023-08-20T15:31:48;98412.00;;;35.50
15062;BMP180;7630;50.306;8.566;2023-08-20T15:35:51;98408.00;;;34.60
15062;BMP180;7630;50.306;8.566;2023-08-20T15:39:52;98412.00;;;34.60
15062;BMP180;7630;50.306;8.566;2023-08-20T15:43:53;98418.00;;;35.40
15062;BMP180;7630;50.306;8.566;2023-08-20T15:47:54;98407.00;;;33.30
15062;BMP180;7630;50.306;8.566;2023-08-20T15:51:55;98408.00;;;33.40
15062;BMP180;7630;50.306;8.566;2023-08-20T15:55:56;98409.00;;;33.70
15062;BMP180;7630;50.306;8.566;2023-08-20T15:59:57;98337.00;;;33.30
15062;BMP180;7630;50.306;8.566;2023-08-20T16:03:58;98394.00;;;31.60
15062;BMP180;7630;50.306;8.566;2023-08-20T16:08:00;98395.00;;;34.50
15062;BMP180;7630;50.306;8.566;2023-08-20T16:12:01;98401.00;;;35.00
15062;BMP180;7630;50.306;8.566;2023-08-20T16:16:03;98397.00;;;33.00
15062;BMP180;7630;50.306;8.566;2023-08-20T16:20:07;98389.00;;;33.70
15062;BMP180;7630;50.306;8.566;2023-08-20T16:24:08;98394.00;;;33.40
15062;BMP180;7630;50.306;8.566;2023-08-20T16:28:11;98396.00;;;34.40
15062;BMP180;7630;50.306;8.566;2023-08-20T16:32:32;98398.00;;;34.80
15062;BMP180;7630;50.306;8.566;2023-08-20T16:36:33;98397.00;;;34.70
15062;BMP180;7630;50.306;8.566;2023-08-20T16:40:35;98396.00;;;34.50
15062;BMP180;7630;50.306;8.566;2023-08-20T16:44:36;98395.00;;;34.00
15062;BMP180;7630;50.306;8.566;2023-08-20T16:48:37;98392.00;;;34.40
15062;BMP180;7630;50.306;8.566;2023-08-20T16:52:38;98389.00;;;33.90
15062;BMP180;7630;50.306;8.566;2023-08-20T16:56:39;98396.00;;;33.70
15062;BMP180;7630;50.306;8.566;2023-08-20T17:00:40;98393.00;;;33.30
15062;BMP180;7630;50.306;8.566;2023-08-20T17:04:42;98392.00;;;33.70
15062;BMP180;7630;50.306;8.566;2023-08-20T17:08:43;98392.00;;;33.60
15062;BMP180;7630;50.306;8.566;2023-08-20T17:12:45;98396.00;;;33.20
15062;BMP180;7630;50.306;8.566;2023-08-20T17:16:47;98393.00;;;33.50
15062;BMP180;7630;50.306;8.566;2023-08-20T17:20:49;98390.00;;;33.90
15062;BMP180;7630;50.306;8.566;2023-08-20T17:24:53;98382.00;;;33.00
15062;BMP180;7630;50.306;8.566;2023-08-20T17:28:54;98382.00;;;33.20
15062;BMP180;7630;50.306;8.566;2023-08-20T17:32:55;98383.00;;;32.10
15062;BMP180;7630;50.306;8.566;2023-08-20T17:36:56;98382.00;;;31.30
15062;BMP180;7630;50.306;8.566;2023-08-20T17:40:57;98391.00;;;31.60
15062;BMP180;7630;50.306;8.566;2023-08-20T17:44:59;98388.00;;;31.30
15062;BMP180;7630;50.306;8.566;2023-08-20T17:49:00;98384.00;;;31.10
15062;BMP180;7630;50.306;8.566;2023-08-20T17:53:03;98377.00;;;30.80
15062;BMP180;7630;50.306;8.566;2023-08-20T17:57:08;98389.00;;;30.20
15062;BMP180;7630;50.306;8.566;2023-08-20T18:01:10;98387.00;;;30.40
15062;BMP180;7630;50.306;8.566;2023-08-20T18:05:11;98398.00;;;30.00
15062;BMP180;7630;50.306;8.566;2023-08-20T18:09:12;98400.00;;;30.80
15062;BMP180;7630;50.306;8.566;2023-08-20T18:13:13;98399.00;;;30.80
15062;BMP180;7630;50.306;8.566;2023-08-20T18:17:15;98399.00;;;31.30
15062;BMP180;7630;50.306;8.566;2023-08-20T18:21:16;98395.00;;;31.10
15062;BMP180;7630;50.306;8.566;2023-08-20T18:25:17;98405.00;;;31.40
15062;BMP180;7630;50.306;8.566;2023-08-20T18:29:18;98405.00;;;31.20
15062;BMP180;7630;50.306;8.566;2023-08-20T18:33:20;98408.00;;;31.30
15062;BMP180;7630;50.306;8.566;2023-08-20T18:37:22;98412.00;;;31.20
15062;BMP180;7630;50.306;8.566;2023-08-20T18:41:23;98417.00;;;31.10
15062;BMP180;7630;50.306;8.566;2023-08-20T18:45:24;98427.00;;;30.90
15062;BMP180;7630;50.306;8.566;2023-08-20T18:49:25;98438.00;;;30.60
15062;BMP180;7630;50.306;8.566;2023-08-20T18:53:26;98450.00;;;30.50
15062;BMP180;7630;50.306;8.566;2023-08-20T18:57:27;98446.00;;;29.60
15062;BMP180;7630;50.306;8.566;2023-08-20T19:01:29;98449.00;;;30.10
15062;BMP180;7630;50.306;8.566;2023-08-20T19:05:30;98457.00;;;29.80
15062;BMP180;7630;50.306;8.566;2023-08-20T19:09:31;98455.00;;;29.80
15062;BMP180;7630;50.306;8.566;2023-08-20T19:13:33;98464.00;;;29.50
15062;BMP180;7630;50.306;8.566;2023-08-20T19:17:34;98479.00;;;29.30
15062;BMP180;7630;50.306;8.566;2023-08-20T19:21:35;98468.00;;;29.40
15062;BMP180;7630;50.306;8.566;2023-08-20T19:25:36;98471.00;;;29.10
15062;BMP180;7630;50.306;8.566;2023-08-20T19:29:37;98471.00;;;28.60
15062;BMP180;7630;50.306;8.566;2023-08-20T19:33:38;98473.00;;;28.80
15062;BMP180;7630;50.306;8.566;2023-08-20T19:37:39;98477.00;;;28.70
15062;BMP180;7630;50.306;8.566;2023-08-20T19:41:40;98479.00;;;28.60
15062;BMP180;7630;50.306;8.566;2023-08-20T19:45:41;98478.00;;;28.50
15062;BMP180;7630;50.306;8.566;2023-08-20T19:49:43;98482.00;;;28.50
15062;BMP180;7630;50.306;8.566;2023-08-20T19:53:44;98489.00;;;28.30
15062;BMP180;7630;50.306;8.566;2023-08-20T19:57:45;98497.00;;;28.00
15062;BMP180;7630;50.306;8.566;2023-08-20T20:01:48;98466.00;;;27.70
15062;BMP180;7630;50.306;8.566;2023-08-20T20:05:49;98484.00;;;27.80
15062;BMP180;7630;50.306;8.566;2023-08-20T20:09:50;98486.00;;;27.20
15062;BMP180;7630;50.306;8.566;2023-08-20T20:13:51;98496.00;;;27.30
15062;BMP180;7630;50.306;8.566;2023-08-20T20:17:52;98507.00;;;27.50
15062;BMP180;7630;50.306;8.566;2023-08-20T20:21:53;98505.00;;;27.40
15062;BMP180;7630;50.306;8.566;2023-08-20T20:25:54;98506.00;;;27.60
15062;BMP180;7630;50.306;8.566;2023-08-20T20:29:56;98501.00;;;27.30
15062;BMP180;7630;50.306;8.566;2023-08-20T20:33:57;98508.00;;;27.40
15062;BMP180;7630;50.306;8.566;2023-08-20T20:37:58;98508.00;;;27.40
15062;BMP180;7630;50.306;8.566;2023-08-20T20:42:00;98502.00;;;27.70
15062;BMP180;7630;50.306;8.566;2023-08-20T20:46:01;98511.00;;;27.20
15062;BMP180;7630;50.306;8.566;2023-08-20T20:50:03;98518.00;;;26.70
15062;BMP180;7630;50.306;8.566;2023-08-20T20:54:05;98524.00;;;27.20
15062;BMP180;7630;50.306;8.566;2023-08-20T20:58:06;98510.00;;;27.30
15062;BMP180;7630;50.306;8.566;2023-08-20T21:02:08;98516.00;;;27.30
15062;BMP180;7630;50.306;8.566;2023-08-20T21:06:09;98510.00;;;27.30
15062;BMP180;7630;50.306;8.566;2023-08-20T21:10:10;98507.00;;;27.00
15062;BMP180;7630;50.306;8.566;2023-08-20T21:14:12;98513.00;;;26.60
15062;BMP180;7630;50.306;8.566;2023-08-20T21:18:14;98514.00;;;26.90
15062;BMP180;7630;50.306;8.566;2023-08-20T21:22:15;98529.00;;;26.90
15062;BMP180;7630;50.306;8.566;2023-08-20T21:26:16;98536.00;;;27.00
15062;BMP180;7630;50.306;8.566;2023-08-20T21:30:17;98531.00;;;27.20
15062;BMP180;7630;50.306;8.566;2023-08-20T21:34:18;98536.00;;;26.90
15062;BMP180;7630;50.306;8.566;2023-08-20T21:38:20;98531.00;;;26.80
15062;BMP180;7630;50.306;8.566;2023-08-20T21:42:21;98525.00;;;26.90
15062;BMP180;7630;50.306;8.566;2023-08-20T21:46:22;98536.00;;;27.20
15062;BMP180;7630;50.306;8.566;2023-08-20T21:50:24;98529.00;;;26.80
15062;BMP180;7630;50.306;8.566;2023-08-20T21:54:25;98536.00;;;26.60
15062;BMP180;7630;50.306;8.566;2023-08-20T21:58:26;98529.00;;;26.50
15062;BMP180;7630;50.306;8.566;2023-08-20T22:02:27;98523.00;;;26.40
15062;BMP180;7630;50.306;8.566;2023-08-20T22:06:28;98537.00;;;26.30
15062;BMP180;7630;50.306;8.566;2023-08-20T22:10:29;98535.00;;;26.40
15062;BMP180;7630;50.306;8.566;2023-08-20T22:14:30;98526.00;;;26.00
15062;BMP180;7630;50.306;8.566;2023-08-20T22:18:32;98535.00;;;26.30
15062;BMP180;7630;50.306;8.566;2023-08-20T22:22:33;98536.00;;;25.90
15062;BMP180;7630;50.306;8.566;2023-08-20T22:26:34;98534.00;;;25.90
15062;BMP180;7630;50.306;8.566;2023-08-20T22:30:36;98536.00;;;26.20
15062;BMP180;7630;50.306;8.566;2023-08-20T22:34:39;98547.00;;;26.20
15062;BMP180;7630;50.306;8.566;2023-08-20T22:38:40;98546.00;;;26.00
15062;BMP180;7630;50.306;8.566;2023-08-20T22:42:41;98541.00;;;25.80
15062;BMP180;7630;50.306;8.566;2023-08-20T22:46:42;98541.00;;;25.80
15062;BMP180;7630;50.306;8.566;2023-08-20T22:50:43;98549.00;;;25.90
15062;BMP180;7630;50.306;8.566;2023-08-20T22:54:44;98547.00;;;25.90
15062;BMP180;7630;50.306;8.566;2023-08-20T22:58:45;98544.00;;;25.80
15062;BMP180;7630;50.306;8.566;2023-08-20T23:02:47;98463.00;;;25.70
15062;BMP180;7630;50.306;8.566;2023-08-20T23:06:48;98550.00;;;25.70
15062;BMP180;7630;50.306;8.566;2023-08-20T23:10:49;98551.00;;;25.70
15062;BMP180;7630;50.306;8.566;2023-08-20T23:14:52;98545.00;;;25.80
15062;BMP180;7630;50.306;8.566;2023-08-20T23:18:53;98556.00;;;25.80
15062;BMP180;7630;50.306;8.566;2023-08-20T23:22:55;98541.00;;;25.80
15062;BMP180;7630;50.306;8.566;2023-08-20T23:26:56;98539.00;;;25.60
15062;BMP180;7630;50.306;8.566;2023-08-20T23:30:57;98525.00;;;25.40
15062;BMP180;7630;50.306;8.566;2023-08-20T23:34:58;98523.00;;;25.50
15062;BMP180;7630;50.306;8.566;2023-08-20T23:38:59;98529.00;;;25.40